Time;durP1;ratioP1;P1;durP2;ratioP2;P2;SDS_P1;SDS_P2;PMS_P1;PMS_P2;Temp;Humidity;BMP_temperature;BMP_pressure;BME280_temperature;BME280_humidity;BME280_pressure;Samples;Min_cycle;Max_cycle;Signal;HPM_P1;HPM_P2
2023/06/21 00:00:58;;;;;;;25.55;23.35;;;;;;;;;;4917084;28;20039;-85
2023/06/21 00:03:25;;;;;;;24.10;21.98;;;;;;;;;;4935842;28;20074;-85
2023/06/21 00:05:51;;;;;;;27.67;25.00;;;;;;;;;;4904189;28;20046;-84
2023/06/21 00:08:17;;;;;;;21.92;20.02;;;;;;;;;;4950385;28;20117;-85
2023/06/21 00:10:44;;;;;;;20.25;18.38;;;;;;;;;;4916051;28;20450;-84
2023/06/21 00:13:10;;;;;;;23.73;21.55;;;;;;;;;;4939391;28;20043;-85
2023/06/21 00:15:36;;;;;;;18.83;17.17;;;;;;;;;;4939925;28;20051;-84
2023/06/21 00:18:02;;;;;;;19.45;17.60;;;;;;;;;;4900679;28;21637;-85
2023/06/21 00:20:28;;;;;;;21.02;19.05;;;;;;;;;;4922728;28;20039;-84
2023/06/21 00:22:57;;;;;;;19.98;18.20;;;;;;;;;;4902546;28;20039;-85
2023/06/21 00:25:24;;;;;;;19.88;18.02;;;;;;;;;;4903431;28;20075;-84
2023/06/21 00:27:50;;;;;;;21.00;18.90;;;;;;;;;;4912063;28;20553;-84
2023/06/21 00:30:16;;;;;;;18.33;16.70;;;;;;;;;;4945148;28;20066;-85
2023/06/21 00:32:45;;;;;;;21.38;19.27;;;;;;;;;;4931148;28;20055;-84
2023/06/21 00:35:11;;;;;;;19.05;17.25;;;;;;;;;;4957304;28;20047;-84
2023/06/21 00:37:37;;;;;;;19.80;17.90;;;;;;;;;;4924975;28;20035;-85
2023/06/21 00:40:07;;;;;;;21.00;19.05;;;;;;;;;;4933010;28;20053;-85
2023/06/21 00:42:33;;;;;;;17.50;15.90;;;;;;;;;;4944611;28;20097;-85
2023/06/21 00:44:59;;;;;;;17.73;16.02;;;;;;;;;;4930980;28;20043;-85
2023/06/21 00:47:25;;;;;;;20.15;18.17;;;;;;;;;;4937328;28;20047;-85
2023/06/21 00:49:51;;;;;;;17.10;15.50;;;;;;;;;;4918233;28;20046;-85
2023/06/21 00:52:17;;;;;;;18.02;16.35;;;;;;;;;;4942826;28;20050;-85
2023/06/21 00:54:43;;;;;;;21.48;19.08;;;;;;;;;;4895296;28;20051;-85
2023/06/21 00:57:11;;;;;;;19.70;17.85;;;;;;;;;;4921226;28;20137;-85
2023/06/21 00:59:37;;;;;;;;;;;;;;;;;;4934535;28;20105;-85
2023/06/21 01:02:03;;;;;;;19.88;17.90;;;;;;;;;;4929072;28;20301;-84
2023/06/21 01:04:33;;;;;;;16.92;15.32;;;;;;;;;;4914392;28;20047;-84
2023/06/21 01:07:02;;;;;;;20.98;18.83;;;;;;;;;;4914971;28;20442;-84
2023/06/21 01:09:32;;;;;;;22.27;19.90;;;;;;;;;;4935185;28;20401;-84
2023/06/21 01:12:01;;;;;;;19.88;17.83;;;;;;;;;;4938065;28;20038;-84
2023/06/21 01:14:27;;;;;;;21.83;19.63;;;;;;;;;;4922527;28;20390;-85
2023/06/21 01:16:53;;;;;;;22.05;19.80;;;;;;;;;;4953933;28;20050;-85
2023/06/21 01:19:25;;;;;;;21.42;17.70;;;;;;;;;;4944351;28;20063;-85
2023/06/21 01:21:51;;;;;;;20.38;18.25;;;;;;;;;;4950364;28;20690;-85
2023/06/21 01:24:17;;;;;;;20.70;18.67;;;;;;;;;;4919776;28;20050;-85
2023/06/21 01:26:55;;;;;;;19.33;17.63;;;;;;;;;;4921472;28;20057;-85
2023/06/21 01:29:22;;;;;;;21.65;19.02;;;;;;;;;;4937294;28;20822;-85
2023/06/21 01:31:50;;;;;;;19.73;17.88;;;;;;;;;;4917647;28;20085;-85
2023/06/21 01:34:16;;;;;;;19.02;17.33;;;;;;;;;;4907777;28;20370;-85
2023/06/21 01:36:45;;;;;;;22.90;20.10;;;;;;;;;;4926166;28;20046;-85
2023/06/21 01:39:11;;;;;;;19.45;17.65;;;;;;;;;;4940830;28;20084;-85
2023/06/21 01:41:38;;;;;;;21.50;19.40;;;;;;;;;;4925953;28;20038;-85
2023/06/21 01:44:05;;;;;;;21.90;19.80;;;;;;;;;;4937349;28;20505;-85
2023/06/21 01:46:31;;;;;;;23.23;20.77;;;;;;;;;;4945177;28;20046;-85
2023/06/21 01:48:59;;;;;;;22.60;20.30;;;;;;;;;;4918179;28;20046;-85
2023/06/21 01:51:26;;;;;;;21.88;19.58;;;;;;;;;;4924778;28;20050;-85
2023/06/21 01:53:52;;;;;;;21.95;19.42;;;;;;;;;;4917191;28;20047;-85
2023/06/21 01:56:18;;;;;;;21.27;19.17;;;;;;;;;;4918852;28;20055;-85
2023/06/21 01:58:46;;;;;;;22.58;20.30;;;;;;;;;;4934159;28;20047;-85
2023/06/21 02:01:12;;;;;;;23.48;21.13;;;;;;;;;;4907704;28;20070;-85
2023/06/21 02:03:40;;;;;;;25.48;22.83;;;;;;;;;;4937723;28;20035;-85
2023/06/21 02:06:06;;;;;;;25.05;22.55;;;;;;;;;;4920705;28;20043;-85
2023/06/21 02:08:35;;;;;;;25.83;23.38;;;;;;;;;;4921648;28;20533;-85
2023/06/21 02:11:01;;;;;;;22.10;20.10;;;;;;;;;;4931786;28;20038;-85
2023/06/21 02:13:27;;;;;;;24.27;22.05;;;;;;;;;;4921434;28;20038;-85
2023/06/21 02:15:53;;;;;;;23.30;21.10;;;;;;;;;;4950586;28;20446;-85
2023/06/21 02:18:23;;;;;;;24.13;21.70;;;;;;;;;;4917973;28;21743;-85
2023/06/21 02:20:49;;;;;;;26.38;23.88;;;;;;;;;;4923841;28;20039;-85
2023/06/21 02:23:15;;;;;;;28.90;26.10;;;;;;;;;;4924824;28;20039;-84
2023/06/21 02:25:44;;;;;;;29.50;26.50;;;;;;;;;;4932875;28;20031;-84
2023/06/21 02:28:10;;;;;;;26.38;23.85;;;;;;;;;;4937807;28;20050;-84
2023/06/21 02:30:36;;;;;;;29.65;26.95;;;;;;;;;;4919125;28;20168;-84
2023/06/21 02:33:02;;;;;;;30.52;27.48;;;;;;;;;;4918843;28;21410;-84
2023/06/21 02:35:28;;;;;;;26.02;23.73;;;;;;;;;;4924198;28;20034;-84
2023/06/21 02:37:55;;;;;;;26.55;24.15;;;;;;;;;;4929020;28;20651;-85
2023/06/21 02:40:21;;;;;;;29.63;26.73;;;;;;;;;;4907906;28;20093;-85
2023/06/21 02:42:48;;;;;;;28.38;25.65;;;;;;;;;;4926876;28;20121;-85
2023/06/21 02:45:14;;;;;;;26.27;23.77;;;;;;;;;;4936913;28;20038;-85
2023/06/21 02:47:40;;;;;;;32.55;29.30;;;;;;;;;;4946100;28;20047;-85
2023/06/21 02:50:06;;;;;;;31.27;28.23;;;;;;;;;;4922980;28;20081;-85
2023/06/21 02:52:32;;;;;;;34.65;31.00;;;;;;;;;;4922755;28;20394;-85
2023/06/21 02:54:58;;;;;;;36.47;32.65;;;;;;;;;;4930064;28;20097;-85
2023/06/21 02:57:24;;;;;;;36.83;32.90;;;;;;;;;;4939791;28;20396;-85
2023/06/21 02:59:50;;;;;;;37.03;33.13;;;;;;;;;;4935999;28;20061;-85
2023/06/21 03:02:16;;;;;;;37.65;33.83;;;;;;;;;;4932143;28;20038;-85
2023/06/21 03:04:45;;;;;;;42.97;36.75;;;;;;;;;;4912230;28;20035;-85
2023/06/21 03:07:11;;;;;;;40.85;36.22;;;;;;;;;;4914021;28;20505;-84
2023/06/21 03:09:38;;;;;;;38.58;34.50;;;;;;;;;;4910800;28;20042;-84
2023/06/21 03:12:08;;;;;;;41.35;36.83;;;;;;;;;;4923237;28;20372;-84
2023/06/21 03:14:37;;;;;;;43.58;36.85;;;;;;;;;;4909453;28;20052;-84
2023/06/21 03:17:03;;;;;;;41.92;36.03;;;;;;;;;;4894571;28;21740;-85
2023/06/21 03:19:29;;;;;;;47.15;38.95;;;;;;;;;;4916506;28;20038;-85
2023/06/21 03:21:55;;;;;;;51.78;40.38;;;;;;;;;;4900935;28;20078;-84
2023/06/21 03:24:21;;;;;;;47.20;38.63;;;;;;;;;;4914106;28;20096;-85
2023/06/21 03:26:48;;;;;;;44.42;38.83;;;;;;;;;;4914027;28;20062;-85
2023/06/21 03:29:14;;;;;;;42.88;38.05;;;;;;;;;;4933658;28;20054;-85
2023/06/21 03:31:40;;;;;;;39.40;34.88;;;;;;;;;;4951857;28;20188;-84
2023/06/21 03:34:06;;;;;;;43.92;37.60;;;;;;;;;;4927820;28;20047;-85
2023/06/21 03:36:32;;;;;;;43.35;37.67;;;;;;;;;;4938478;28;20046;-85
2023/06/21 03:38:58;;;;;;;44.03;38.25;;;;;;;;;;4895587;28;20478;-85
2023/06/21 03:41:24;;;;;;;42.65;37.78;;;;;;;;;;4928462;28;20069;-85
2023/06/21 03:43:50;;;;;;;50.47;40.97;;;;;;;;;;4922522;28;20581;-85
2023/06/21 03:46:18;;;;;;;42.33;37.40;;;;;;;;;;4930239;28;20133;-84
2023/06/21 03:48:44;;;;;;;49.90;40.85;;;;;;;;;;4905533;28;20336;-84
2023/06/21 03:51:10;;;;;;;45.80;38.17;;;;;;;;;;4942959;28;20045;-85
2023/06/21 03:53:36;;;;;;;40.65;36.25;;;;;;;;;;4906738;28;20106;-85
2023/06/21 03:56:04;;;;;;;42.25;36.35;;;;;;;;;;4914585;28;20043;-84
2023/06/21 03:58:30;;;;;;;44.83;38.95;;;;;;;;;;4903140;28;20414;-84
2023/06/21 04:00:56;;;;;;;44.10;38.47;;;;;;;;;;4934123;28;20836;-84
2023/06/21 04:03:22;;;;;;;43.58;38.05;;;;;;;;;;4905505;28;20035;-85
2023/06/21 04:05:48;;;;;;;47.03;38.75;;;;;;;;;;4932637;28;21814;-84
2023/06/21 04:08:14;;;;;;;46.80;38.92;;;;;;;;;;4918611;28;20046;-85
2023/06/21 04:10:41;;;;;;;42.88;35.92;;;;;;;;;;4932372;28;20435;-85
2023/06/21 04:13:10;;;;;;;41.27;35.27;;;;;;;;;;4927451;28;20142;-84
2023/06/21 04:15:36;;;;;;;38.10;34.15;;;;;;;;;;4927975;28;20088;-84
2023/06/21 04:18:02;;;;;;;44.13;38.70;;;;;;;;;;4910638;28;21118;-85
2023/06/21 04:20:30;;;;;;;43.43;38.37;;;;;;;;;;4901000;28;20086;-85
2023/06/21 04:22:57;;;;;;;44.17;37.10;;;;;;;;;;4910046;28;20189;-85
2023/06/21 04:25:23;;;;;;;43.35;38.63;;;;;;;;;;4914345;28;20051;-84
2023/06/21 04:27:49;;;;;;;44.33;39.22;;;;;;;;;;4920599;28;20038;-84
2023/06/21 04:30:16;;;;;;;41.05;35.15;;;;;;;;;;4897793;28;20061;-84
2023/06/21 04:32:45;;;;;;;38.70;34.08;;;;;;;;;;4926470;28;20047;-84
2023/06/21 04:35:14;;;;;;;44.40;38.28;;;;;;;;;;4929788;28;20089;-84
2023/06/21 04:37:44;;;;;;;41.83;37.15;;;;;;;;;;4893537;28;20063;-85
2023/06/21 04:40:15;;;;;;;41.33;36.90;;;;;;;;;;4914656;28;20133;-85
2023/06/21 04:42:44;;;;;;;42.50;37.80;;;;;;;;;;4922785;28;20047;-84
2023/06/21 04:45:16;;;;;;;41.53;37.10;;;;;;;;;;4929446;28;20043;-85
2023/06/21 04:47:48;;;;;;;43.30;38.55;;;;;;;;;;4926199;28;20101;-84
2023/06/21 04:50:15;;;;;;;47.67;39.70;;;;;;;;;;4914366;28;20042;-85
2023/06/21 04:52:41;;;;;;;42.58;37.92;;;;;;;;;;4902684;28;20047;-85
2023/06/21 04:55:07;;;;;;;46.83;40.70;;;;;;;;;;4896041;28;20095;-85
2023/06/21 04:57:34;;;;;;;45.92;38.85;;;;;;;;;;4903247;28;20139;-85
2023/06/21 05:00:06;;;;;;;43.17;38.53;;;;;;;;;;4909214;28;20043;-85
2023/06/21 05:02:32;;;;;;;44.92;40.15;;;;;;;;;;4929881;28;20125;-85
2023/06/21 05:04:58;;;;;;;47.38;41.00;;;;;;;;;;4928480;28;20061;-85
2023/06/21 05:07:24;;;;;;;45.33;38.75;;;;;;;;;;4931659;28;20070;-85
2023/06/21 05:09:50;;;;;;;43.58;38.88;;;;;;;;;;4927112;28;20486;-85
2023/06/21 05:12:16;;;;;;;43.03;38.45;;;;;;;;;;4912876;28;20109;-84
2023/06/21 05:14:42;;;;;;;44.80;40.00;;;;;;;;;;4898283;28;20141;-83
2023/06/21 05:17:11;;;;;;;47.95;42.45;;;;;;;;;;4909276;28;20050;-83
2023/06/21 05:19:37;;;;;;;48.63;42.53;;;;;;;;;;4913775;28;20046;-83
2023/06/21 05:22:03;;;;;;;48.78;41.65;;;;;;;;;;4931764;28;21911;-83
2023/06/21 05:24:29;;;;;;;50.08;41.83;;;;;;;;;;4917004;28;20042;-83
2023/06/21 05:26:55;;;;;;;46.25;40.70;;;;;;;;;;4915120;28;20141;-83
2023/06/21 05:29:24;;;;;;;43.90;39.17;;;;;;;;;;4904341;28;20059;-83
2023/06/21 05:31:50;;;;;;;49.67;42.40;;;;;;;;;;4911836;28;20046;-83
2023/06/21 05:34:16;;;;;;;45.08;39.95;;;;;;;;;;4913839;28;20425;-83
2023/06/21 05:36:42;;;;;;;46.70;41.30;;;;;;;;;;4901676;28;20446;-83
2023/06/21 05:39:08;;;;;;;46.78;41.22;;;;;;;;;;4910645;28;20035;-83
2023/06/21 05:41:34;;;;;;;45.88;40.25;;;;;;;;;;4931354;28;20042;-83
2023/06/21 05:44:00;;;;;;;45.03;39.40;;;;;;;;;;4926011;28;20039;-83
2023/06/21 05:46:27;;;;;;;43.92;39.17;;;;;;;;;;4904649;28;20402;-83
2023/06/21 05:48:53;;;;;;;44.22;38.25;;;;;;;;;;4890355;28;20177;-83
2023/06/21 05:51:19;;;;;;;41.08;36.65;;;;;;;;;;4935188;28;20042;-84
2023/06/21 05:53:45;;;;;;;43.75;38.70;;;;;;;;;;4899852;28;20054;-84
2023/06/21 05:56:11;;;;;;;44.08;39.13;;;;;;;;;;4924242;28;20042;-84
2023/06/21 05:58:37;;;;;;;40.78;36.38;;;;;;;;;;4938805;28;20039;-83
2023/06/21 06:01:03;;;;;;;44.78;38.38;;;;;;;;;;4913409;28;20497;-85
2023/06/21 06:03:29;;;;;;;39.58;35.45;;;;;;;;;;4915640;28;20684;-84
2023/06/21 06:05:55;;;;;;;34.28;30.67;;;;;;;;;;4916080;28;20541;-84
2023/06/21 06:08:21;;;;;;;38.70;34.55;;;;;;;;;;4930149;28;20050;-85
2023/06/21 06:10:48;;;;;;;40.15;35.95;;;;;;;;;;4893579;28;20437;-84
2023/06/21 06:13:14;;;;;;;36.80;32.83;;;;;;;;;;4912041;28;20153;-84
2023/06/21 06:15:40;;;;;;;37.25;33.08;;;;;;;;;;4917313;28;20035;-84
2023/06/21 06:18:06;;;;;;;38.03;33.15;;;;;;;;;;4921802;28;20046;-85
2023/06/21 06:20:32;;;;;;;35.85;31.92;;;;;;;;;;4910702;28;20597;-85
2023/06/21 06:22:58;;;;;;;34.80;30.80;;;;;;;;;;4905005;28;20042;-85
2023/06/21 06:25:24;;;;;;;35.42;31.60;;;;;;;;;;4903488;28;20386;-85
2023/06/21 06:27:50;;;;;;;37.35;31.27;;;;;;;;;;4923860;28;20379;-85
2023/06/21 06:30:16;;;;;;;35.30;31.50;;;;;;;;;;4923903;28;20141;-85
2023/06/21 06:32:45;;;;;;;33.42;29.90;;;;;;;;;;4896944;28;20043;-85
2023/06/21 06:35:11;;;;;;;34.60;30.92;;;;;;;;;;4945065;28;20375;-84
2023/06/21 06:37:38;;;;;;;34.17;30.48;;;;;;;;;;4910829;28;20133;-85
2023/06/21 06:40:05;;;;;;;33.22;29.83;;;;;;;;;;4906850;28;20066;-85
2023/06/21 06:42:31;;;;;;;33.88;30.38;;;;;;;;;;4897343;28;20042;-86
2023/06/21 06:44:57;;;;;;;30.58;27.48;;;;;;;;;;4902135;28;20043;-86
2023/06/21 06:47:23;;;;;;;32.05;28.85;;;;;;;;;;4936497;28;20080;-85
2023/06/21 06:49:49;;;;;;;30.48;27.38;;;;;;;;;;4928603;28;20106;-84
2023/06/21 06:52:15;;;;;;;29.45;26.35;;;;;;;;;;4926408;28;20050;-85
2023/06/21 06:54:44;;;;;;;28.77;25.67;;;;;;;;;;4928213;28;20120;-85
2023/06/21 06:57:10;;;;;;;27.90;24.90;;;;;;;;;;4917312;28;20043;-86
2023/06/21 06:59:36;;;;;;;30.00;27.02;;;;;;;;;;4928245;28;20035;-85
2023/06/21 07:02:02;;;;;;;26.30;23.45;;;;;;;;;;4915640;28;21460;-86
2023/06/21 07:04:28;;;;;;;26.63;24.02;;;;;;;;;;4902873;28;20122;-86
2023/06/21 07:06:57;;;;;;;24.55;21.25;;;;;;;;;;4924543;28;20050;-85
2023/06/21 07:09:23;;;;;;;21.50;19.30;;;;;;;;;;4912165;28;20035;-85
2023/06/21 07:11:49;;;;;;;18.90;16.95;;;;;;;;;;4942604;28;20130;-85
2023/06/21 07:14:15;;;;;;;16.75;15.05;;;;;;;;;;4932100;28;20081;-85
2023/06/21 07:16:44;;;;;;;16.27;14.60;;;;;;;;;;4904293;28;20327;-84
2023/06/21 07:19:10;;;;;;;14.75;13.35;;;;;;;;;;4924054;28;20154;-85
2023/06/21 07:21:39;;;;;;;17.27;14.93;;;;;;;;;;4918731;28;20117;-84
2023/06/21 07:24:05;;;;;;;14.75;13.25;;;;;;;;;;4923043;28;20051;-85
2023/06/21 07:26:31;;;;;;;16.05;14.32;;;;;;;;;;4917616;28;20490;-85
2023/06/21 07:28:58;;;;;;;13.52;12.20;;;;;;;;;;4916517;28;20570;-85
2023/06/21 07:31:24;;;;;;;13.20;10.25;;;;;;;;;;4948502;28;20069;-85
2023/06/21 07:33:50;;;;;;;11.80;9.95;;;;;;;;;;4923132;28;20070;-85
2023/06/21 07:36:16;;;;;;;10.77;9.77;;;;;;;;;;4930906;28;20066;-85
2023/06/21 07:38:46;;;;;;;10.77;9.77;;;;;;;;;;4930741;28;20417;-85
2023/06/21 07:41:12;;;;;;;11.98;10.77;;;;;;;;;;4915609;28;20406;-86
2023/06/21 07:43:38;;;;;;;10.85;9.70;;;;;;;;;;4913609;28;20108;-85
2023/06/21 07:46:04;;;;;;;10.70;9.70;;;;;;;;;;4919038;28;20045;-89
2023/06/21 07:48:30;;;;;;;12.57;9.30;;;;;;;;;;4914909;28;20389;-85
2023/06/21 07:50:57;;;;;;;8.68;7.82;;;;;;;;;;4912468;28;20693;-85
2023/06/21 07:53:23;;;;;;;8.55;7.60;;;;;;;;;;4935193;28;20211;-86
2023/06/21 07:55:49;;;;;;;8.95;7.45;;;;;;;;;;4919913;28;20035;-86
2023/06/21 07:58:15;;;;;;;6.70;6.07;;;;;;;;;;4920471;28;20105;-85
2023/06/21 08:00:41;;;;;;;7.05;6.35;;;;;;;;;;4945688;28;20070;-85
2023/06/21 08:03:07;;;;;;;10.35;7.25;;;;;;;;;;4923530;28;20090;-90
2023/06/21 08:05:33;;;;;;;10.23;7.07;;;;;;;;;;4916105;28;20050;-90
2023/06/21 08:08:01;;;;;;;8.63;7.68;;;;;;;;;;4935321;28;20043;-89
2023/06/21 08:10:33;;;;;;;8.13;7.13;;;;;;;;;;4923635;28;20449;-89
2023/06/21 08:13:00;;;;;;;7.45;6.75;;;;;;;;;;4930564;28;20482;-90
2023/06/21 08:15:29;;;;;;;6.93;6.23;;;;;;;;;;4931260;28;20042;-89
2023/06/21 08:17:55;;;;;;;7.10;6.50;;;;;;;;;;4948178;28;20046;-89
2023/06/21 08:20:22;;;;;;;7.65;6.95;;;;;;;;;;4942862;28;20066;-89
2023/06/21 08:22:48;;;;;;;10.05;7.47;;;;;;;;;;4942990;28;20034;-89
2023/06/21 08:25:14;;;;;;;6.93;5.28;;;;;;;;;;4944926;28;20038;-89
2023/06/21 08:27:40;;;;;;;8.30;6.30;;;;;;;;;;4909867;28;20089;-89
2023/06/21 08:30:06;;;;;;;6.47;5.63;;;;;;;;;;4953774;28;20059;-88
2023/06/21 08:32:33;;;;;;;8.85;6.18;;;;;;;;;;4924233;28;20054;-88
2023/06/21 08:34:59;;;;;;;5.43;4.65;;;;;;;;;;4922115;28;20049;-89
2023/06/21 08:55:20;;;;;;;5.47;4.07;;;;;;;;;;5552040;23;20120;-89
2023/06/21 08:58:06;;;;;;;4.70;4.30;;;;;;;;;;4980963;28;20046;-89
2023/06/21 09:00:48;;;;;;;6.30;4.28;;;;;;;;;;4983899;28;20046;-89
2023/06/21 09:03:34;;;;;;;4.70;3.65;;;;;;;;;;4952495;28;20030;-89
2023/06/21 09:06:08;;;;;;;6.53;3.83;;;;;;;;;;4960060;28;20052;-89
2023/06/21 09:08:37;;;;;;;5.55;4.10;;;;;;;;;;4972272;28;20061;-89
2023/06/21 09:11:05;;;;;;;5.72;4.32;;;;;;;;;;4961005;28;20397;-89
2023/06/21 09:13:32;;;;;;;4.70;4.30;;;;;;;;;;4960722;28;20042;-90
2023/06/21 09:15:59;;;;;;;5.03;3.58;;;;;;;;;;4956657;28;20140;-89
2023/06/21 09:18:35;;;;;;;5.07;4.00;;;;;;;;;;4971844;28;20038;-89
2023/06/21 09:21:03;;;;;;;3.60;3.10;;;;;;;;;;4965340;28;20077;-89
2023/06/21 09:23:31;;;;;;;5.38;4.13;;;;;;;;;;4970949;28;20396;-89
2023/06/21 09:25:58;;;;;;;8.98;3.42;;;;;;;;;;4981835;28;20485;-89
2023/06/21 09:28:25;;;;;;;5.70;2.90;;;;;;;;;;4976143;28;20133;-89
2023/06/21 09:30:52;;;;;;;5.00;3.38;;;;;;;;;;4984269;28;20047;-90
2023/06/21 09:33:19;;;;;;;3.60;3.30;;;;;;;;;;4970216;28;20516;-89
2023/06/21 09:35:45;;;;;;;5.10;3.17;;;;;;;;;;4960441;28;20065;-90
2023/06/21 09:38:36;;;;;;;3.78;3.30;;;;;;;;;;4968565;28;20397;-90
2023/06/21 09:41:05;;;;;;;7.03;3.53;;;;;;;;;;4980841;28;20046;-90
2023/06/21 09:43:32;;;;;;;5.55;4.60;;;;;;;;;;4958711;28;20042;-90
2023/06/21 09:46:03;;;;;;;5.47;4.68;;;;;;;;;;4948699;28;20506;-88
2023/06/21 09:48:39;;;;;;;4.05;3.60;;;;;;;;;;4954024;28;20081;-89
2023/06/21 09:51:26;;;;;;;4.80;3.35;;;;;;;;;;4934542;28;20046;-89
2023/06/21 09:53:53;;;;;;;5.05;3.33;;;;;;;;;;4947137;28;20046;-89
2023/06/21 09:56:22;;;;;;;5.25;3.35;;;;;;;;;;4936680;28;20437;-89
2023/06/21 09:58:50;;;;;;;4.95;3.30;;;;;;;;;;4950144;28;20153;-90
2023/06/21 10:01:18;;;;;;;4.13;3.60;;;;;;;;;;4966466;28;20115;-89
2023/06/21 10:03:46;;;;;;;4.55;3.33;;;;;;;;;;4964817;28;20046;-90
2023/06/21 10:06:16;;;;;;;2.70;2.50;;;;;;;;;;4933182;28;20038;-90
2023/06/21 10:08:45;;;;;;;3.45;2.60;;;;;;;;;;4941233;28;20034;-89
2023/06/21 10:11:16;;;;;;;2.80;2.25;;;;;;;;;;4968246;28;20092;-89
2023/06/21 10:13:43;;;;;;;3.25;2.72;;;;;;;;;;4934375;28;20129;-90
2023/06/21 10:16:11;;;;;;;3.75;1.90;;;;;;;;;;4965883;28;20093;-90
2023/06/21 10:18:38;;;;;;;2.40;1.70;;;;;;;;;;4934786;28;20066;-89
2023/06/21 10:21:06;;;;;;;2.90;2.30;;;;;;;;;;4945311;28;22097;-88
2023/06/21 10:23:34;;;;;;;3.15;2.40;;;;;;;;;;4951633;28;20053;-90
2023/06/21 10:26:02;;;;;;;3.55;2.40;;;;;;;;;;4926291;28;20039;-90
2023/06/21 10:28:31;;;;;;;4.35;2.22;;;;;;;;;;4965719;28;20452;-89
2023/06/21 10:30:58;;;;;;;2.63;1.90;;;;;;;;;;4928849;28;20042;-90
2023/06/21 10:33:29;;;;;;;2.30;2.00;;;;;;;;;;4955801;28;20472;-90
2023/06/21 10:35:57;;;;;;;3.22;2.40;;;;;;;;;;4940931;28;20042;-89
2023/06/21 10:38:42;;;;;;;3.55;2.42;;;;;;;;;;4952857;28;20034;-90
2023/06/21 10:41:12;;;;;;;3.00;2.33;;;;;;;;;;4954252;28;20068;-90
2023/06/21 10:43:39;;;;;;;2.65;2.45;;;;;;;;;;4936452;28;20406;-90
2023/06/21 10:46:07;;;;;;;3.90;2.50;;;;;;;;;;4941524;28;20050;-90
2023/06/21 10:48:34;;;;;;;3.20;2.17;;;;;;;;;;4945987;28;20038;-90
2023/06/21 10:51:05;;;;;;;;;;;;;;;;;;4926674;28;20045;-91
2023/06/21 10:53:36;;;;;;;2.53;2.05;;;;;;;;;;4968492;28;20355;-89
2023/06/21 10:56:05;;;;;;;3.53;1.88;;;;;;;;;;4950548;28;20057;-90
2023/06/21 10:58:32;;;;;;;4.13;2.05;;;;;;;;;;4948624;28;20053;-91
2023/06/21 11:00:59;;;;;;;3.15;2.28;;;;;;;;;;4932167;28;20043;-90
2023/06/21 11:03:26;;;;;;;2.42;1.75;;;;;;;;;;4947432;28;20521;-90
2023/06/21 11:05:55;;;;;;;2.97;2.10;;;;;;;;;;4941917;28;20505;-90
2023/06/21 11:08:31;;;;;;;2.55;2.30;;;;;;;;;;4946322;28;20038;-90
2023/06/21 11:10:59;;;;;;;3.07;2.10;;;;;;;;;;4962984;28;20190;-91
2023/06/21 11:13:44;;;;;;;3.92;2.20;;;;;;;;;;4966111;28;20045;-89
2023/06/21 11:16:29;;;;;;;3.60;2.17;;;;;;;;;;4976631;28;20104;-90
2023/06/21 11:18:58;;;;;;;3.78;2.58;;;;;;;;;;4943061;28;20045;-90
2023/06/21 11:21:47;;;;;;;3.63;1.98;;;;;;;;;;4934074;28;20060;-90
2023/06/21 11:24:18;;;;;;;3.85;2.50;;;;;;;;;;4959390;28;20505;-90
2023/06/21 11:27:05;;;;;;;3.88;2.20;;;;;;;;;;4943976;28;20118;-89
2023/06/21 11:29:51;;;;;;;2.78;2.58;;;;;;;;;;4972153;28;20482;-90
2023/06/21 11:32:19;;;;;;;2.30;2.10;;;;;;;;;;4970672;28;20121;-90
2023/06/21 11:34:59;;;;;;;3.03;1.92;;;;;;;;;;4946290;28;20125;-90
2023/06/21 11:37:47;;;;;;;2.92;2.20;;;;;;;;;;4965156;28;20441;-91
2023/06/21 11:40:18;;;;;;;2.60;1.80;;;;;;;;;;4962253;28;20042;-91
2023/06/21 11:42:44;;;;;;;3.42;1.65;;;;;;;;;;4963046;28;20493;-91
2023/06/21 11:45:35;;;;;;;2.42;1.80;;;;;;;;;;4964656;28;20034;-91
2023/06/21 11:48:10;;;;;;;2.20;2.00;;;;;;;;;;4945024;28;20078;-91
2023/06/21 11:50:56;;;;;;;3.97;2.38;;;;;;;;;;4968784;28;20057;-91
2023/06/21 11:53:42;;;;;;;3.13;2.20;;;;;;;;;;4950640;28;20188;-90
2023/06/21 11:56:13;;;;;;;2.63;2.10;;;;;;;;;;4968719;28;20401;-91
2023/06/21 11:58:39;;;;;;;1.60;1.50;;;;;;;;;;4955485;28;20349;-90
2023/06/21 12:01:07;;;;;;;2.92;1.70;;;;;;;;;;4951423;28;20039;-90
2023/06/21 12:03:34;;;;;;;;;;;;;;;;;;4931565;28;20038;-90
2023/06/21 12:06:01;;;;;;;;;;;;;;;;;;4979243;28;19921;-92
2023/06/21 12:08:29;;;;;;;;;;;;;;;;;;4986709;28;19925;-90
2023/06/21 12:10:56;;;;;;;;;;;;;;;;;;4973622;28;19968;-91
2023/06/21 12:13:23;;;;;;;2.38;2.17;;;;;;;;;;4962795;28;20025;-89
2023/06/21 12:16:10;;;;;;;2.40;1.70;;;;;;;;;;4938481;28;20485;-90
2023/06/21 12:18:40;;;;;;;2.97;2.05;;;;;;;;;;4938144;28;20489;-89
2023/06/21 12:21:16;;;;;;;2.50;2.05;;;;;;;;;;4934856;28;20125;-90
2023/06/21 12:24:15;;;;;;;2.60;2.13;;;;;;;;;;4944368;28;20529;-89
2023/06/21 12:30:06;;;;;;;2.05;1.85;;;;;;;;;;4921575;29;20055;-89
2023/06/21 12:32:48;;;;;;;2.47;2.17;;;;;;;;;;4944587;28;20516;-90
2023/06/21 12:35:25;;;;;;;3.65;2.30;;;;;;;;;;4931268;28;20515;-89
2023/06/21 12:37:59;;;;;;;5.65;2.30;;;;;;;;;;4930590;28;20085;-90
2023/06/21 12:40:32;;;;;;;3.03;2.58;;;;;;;;;;4950765;28;20187;-89
2023/06/21 12:43:17;;;;;;;2.78;1.85;;;;;;;;;;4929860;28;20039;-89
2023/06/21 12:46:04;;;;;;;;;;;;;;;;;;;;;
2023/06/21 12:48:36;;;;;;;18.48;5.03;;;;;;;;;;4925903;28;20074;-90
2023/06/21 12:51:04;;;;;;;6.28;2.30;;;;;;;;;;4926775;28;20138;-89
2023/06/21 12:54:02;;;;;;;;;;;;;;;;;;;;;
2023/06/21 12:56:41;;;;;;;3.20;2.55;;;;;;;;;;4923646;29;20083;-90
2023/06/21 12:59:14;;;;;;;3.00;2.58;;;;;;;;;;4905371;28;20183;-89
2023/06/21 13:01:46;;;;;;;3.53;3.00;;;;;;;;;;4889902;28;20086;-87
2023/06/21 13:04:17;;;;;;;3.20;2.22;;;;;;;;;;4918063;28;20678;-89
2023/06/21 13:07:05;;;;;;;4.68;2.42;;;;;;;;;;4917167;28;20525;-89
2023/06/21 13:09:35;;;;;;;3.30;3.00;;;;;;;;;;4903274;29;20107;-89
2023/06/21 13:12:02;;;;;;;3.88;2.85;;;;;;;;;;4888989;28;20088;-89
2023/06/21 13:14:44;;;;;;;3.75;2.30;;;;;;;;;;4922520;29;20058;-89
2023/06/21 13:17:11;;;;;;;2.67;2.47;;;;;;;;;;4925435;28;20057;-88
2023/06/21 13:19:39;;;;;;;6.07;2.13;;;;;;;;;;4956354;28;20046;-89
2023/06/21 13:22:06;;;;;;;2.40;2.20;;;;;;;;;;4924886;28;20557;-89
2023/06/21 13:24:33;;;;;;;;;;;;;;;;;;4947662;28;20038;-89
2023/06/21 13:27:01;;;;;;;5.20;2.40;;;;;;;;;;4939512;28;20383;-89
2023/06/21 13:29:30;;;;;;;3.05;2.78;;;;;;;;;;4944835;28;20490;-89
2023/06/21 13:31:58;;;;;;;2.40;2.20;;;;;;;;;;4943474;28;20038;-89
2023/06/21 13:34:26;;;;;;;2.60;2.40;;;;;;;;;;4959788;28;20504;-89
2023/06/21 13:36:53;;;;;;;2.85;2.30;;;;;;;;;;4954848;28;20525;-88
2023/06/21 13:39:20;;;;;;;3.60;2.72;;;;;;;;;;4958812;28;20042;-89
2023/06/21 13:41:48;;;;;;;2.63;2.42;;;;;;;;;;4943855;28;20041;-89
2023/06/21 13:44:15;;;;;;;2.85;2.65;;;;;;;;;;4948687;28;20046;-90
2023/06/21 13:46:44;;;;;;;3.08;2.58;;;;;;;;;;4964313;28;20038;-89
2023/06/21 13:49:11;;;;;;;5.65;2.88;;;;;;;;;;4950429;28;20050;-88
2023/06/21 13:51:38;;;;;;;3.33;2.35;;;;;;;;;;4932575;28;20092;-89
2023/06/21 13:54:06;;;;;;;3.13;1.88;;;;;;;;;;4942789;28;23013;-88
2023/06/21 13:56:33;;;;;;;2.97;1.90;;;;;;;;;;4949889;28;20121;-89
2023/06/21 13:59:00;;;;;;;4.45;2.28;;;;;;;;;;4958283;28;20053;-90
2023/06/21 14:01:27;;;;;;;2.40;1.87;;;;;;;;;;4943491;28;20082;-89
2023/06/21 14:03:55;;;;;;;2.58;1.75;;;;;;;;;;4945455;28;20049;-90
2023/06/21 14:06:22;;;;;;;2.70;1.80;;;;;;;;;;4948347;28;20061;-90
2023/06/21 14:08:50;;;;;;;2.08;1.88;;;;;;;;;;4930772;28;20121;-89
2023/06/21 14:11:19;;;;;;;2.00;1.80;;;;;;;;;;4952424;28;20060;-90
2023/06/21 14:13:46;;;;;;;2.40;2.03;;;;;;;;;;4962382;28;20042;-89
2023/06/21 14:16:14;;;;;;;1.63;1.52;;;;;;;;;;4934233;28;20092;-89
2023/06/21 14:18:41;;;;;;;2.50;1.83;;;;;;;;;;4943070;28;20086;-89
2023/06/21 14:21:10;;;;;;;2.58;1.60;;;;;;;;;;4958957;28;20045;-89
2023/06/21 14:23:38;;;;;;;2.20;1.80;;;;;;;;;;4947758;28;20039;-89
2023/06/21 14:26:05;;;;;;;2.38;1.67;;;;;;;;;;4929205;28;20412;-90
2023/06/21 14:28:33;;;;;;;2.38;1.70;;;;;;;;;;4962063;28;20124;-90
2023/06/21 14:31:00;;;;;;;2.53;1.65;;;;;;;;;;4927194;28;20510;-91
2023/06/21 14:33:28;;;;;;;1.30;1.20;;;;;;;;;;4931795;28;20118;-89
2023/06/21 14:35:55;;;;;;;1.58;1.20;;;;;;;;;;4935320;28;20170;-90
2023/06/21 14:38:22;;;;;;;2.55;1.67;;;;;;;;;;4960869;28;20143;-89
2023/06/21 14:40:49;;;;;;;2.22;1.50;;;;;;;;;;4927668;28;20404;-90
2023/06/21 14:43:16;;;;;;;3.25;1.35;;;;;;;;;;4949547;28;20042;-89
2023/06/21 14:45:44;;;;;;;2.17;1.50;;;;;;;;;;4928641;28;20065;-89
2023/06/21 14:48:11;;;;;;;2.45;1.55;;;;;;;;;;4935286;28;20056;-90
2023/06/21 14:50:38;;;;;;;1.63;1.52;;;;;;;;;;4932584;28;20052;-90
2023/06/21 14:53:05;;;;;;;;;;;;;;;;;;4947870;28;20050;-88
2023/06/21 14:55:33;;;;;;;2.13;1.65;;;;;;;;;;4965242;28;20017;-90
2023/06/21 14:58:00;;;;;;;4.50;1.80;;;;;;;;;;4944739;28;20100;-89
2023/06/21 15:00:27;;;;;;;2.45;1.40;;;;;;;;;;4946980;28;20125;-89
2023/06/21 15:02:55;;;;;;;2.53;1.40;;;;;;;;;;4960118;28;20034;-89